Time;durP1;ratioP1;P1;durP2;ratioP2;P2;SDS_P1;SDS_P2;PMS_P1;PMS_P2;Temp;Humidity;BMP_temperature;BMP_pressure;BME280_temperature;BME280_humidity;BME280_pressure;Samples;Min_cycle;Max_cycle;Signal;HPM_P1;HPM_P2
2022/03/01 00:00:20;;;;;;;21.30;9.90;;;3.40;99.90;;;;;;5043209;28;20041;-82
2022/03/01 00:02:46;;;;;;;21.40;9.35;;;3.60;99.90;;;;;;5037638;28;20063;-82
2022/03/01 00:05:12;;;;;;;18.17;9.15;;;2.40;99.90;;;;;;5028042;28;20405;-82
2022/03/01 00:07:38;;;;;;;21.25;9.77;;;2.40;99.90;;;;;;5045605;28;20128;-82
2022/03/01 00:10:05;;;;;;;18.52;8.93;;;2.40;99.90;;;;;;5046215;28;20128;-81
2022/03/01 00:12:30;;;;;;;20.23;9.82;;;2.30;99.90;;;;;;5050046;28;20091;-82
2022/03/01 00:14:56;;;;;;;22.40;9.57;;;2.90;99.90;;;;;;5002877;28;20078;-82
2022/03/01 00:17:24;;;;;;;21.30;9.75;;;2.90;99.90;;;;;;5017267;28;20054;-81
2022/03/01 00:19:50;;;;;;;18.63;9.20;;;3.00;99.90;;;;;;5044335;28;20489;-82
2022/03/01 00:22:21;;;;;;;19.80;9.13;;;2.20;99.90;;;;;;5032462;28;20056;-82
2022/03/01 00:24:47;;;;;;;22.20;9.70;;;1.80;99.90;;;;;;5006436;28;20709;-82
2022/03/01 00:27:13;;;;;;;20.05;9.77;;;2.20;99.90;;;;;;5023546;28;20052;-82
2022/03/01 00:29:39;;;;;;;22.20;9.55;;;2.20;99.90;;;;;;5039254;28;20521;-81
2022/03/01 00:32:05;;;;;;;20.48;9.98;;;2.20;99.90;;;;;;5017754;28;20057;-82
2022/03/01 00:34:31;;;;;;;20.48;9.43;;;2.10;99.90;;;;;;5026375;28;20047;-82
2022/03/01 00:36:56;;;;;;;19.20;9.07;;;2.80;99.90;;;;;;5025404;28;20045;-81
2022/03/01 00:39:22;;;;;;;19.35;9.70;;;2.10;99.90;;;;;;5016982;28;20045;-82
2022/03/01 00:41:48;;;;;;;19.05;9.57;;;2.00;99.90;;;;;;5039526;28;20935;-81
2022/03/01 00:44:13;;;;;;;19.02;9.32;;;2.40;99.90;;;;;;5026458;28;20037;-82
2022/03/01 00:46:39;;;;;;;19.92;9.77;;;2.10;99.90;;;;;;5026461;28;20045;-82
2022/03/01 00:49:05;;;;;;;19.08;9.15;;;2.60;99.90;;;;;;5033021;28;20091;-82
2022/03/01 00:51:31;;;;;;;19.13;9.55;;;2.00;99.90;;;;;;5027118;28;20067;-82
2022/03/01 00:53:57;;;;;;;;;;;2.70;99.90;;;;;;5043396;28;20049;-81
2022/03/01 00:56:23;;;;;;;19.60;9.98;;;1.90;99.90;;;;;;5040551;28;19931;-84
2022/03/01 00:58:48;;;;;;;20.42;9.25;;;2.80;99.90;;;;;;5024165;28;20072;-82
2022/03/01 01:01:14;;;;;;;20.58;10.02;;;2.90;99.90;;;;;;5033727;28;20084;-82
2022/03/01 01:03:40;;;;;;;18.67;9.50;;;2.30;99.90;;;;;;5050307;28;20645;-81
2022/03/01 01:06:06;;;;;;;21.90;9.88;;;1.80;99.90;;;;;;5050190;28;20045;-82
2022/03/01 01:08:32;;;;;;;20.25;9.20;;;2.30;99.90;;;;;;5031126;28;20426;-82
2022/03/01 01:10:58;;;;;;;21.85;9.88;;;1.90;99.90;;;;;;5017552;28;20155;-81
2022/03/01 01:13:24;;;;;;;19.52;9.80;;;1.90;99.90;;;;;;5032706;28;20091;-82
2022/03/01 01:15:49;;;;;;;;;;;1.90;99.90;;;;;;5047769;28;20485;-82
2022/03/01 01:18:15;;;;;;;22.30;9.18;;;1.70;99.90;;;;;;5030739;28;19921;-81
2022/03/01 01:20:41;;;;;;;19.63;9.73;;;1.70;99.90;;;;;;5029312;28;20052;-81
2022/03/01 01:23:10;;;;;;;21.38;10.23;;;1.70;99.90;;;;;;5030392;28;20087;-81
2022/03/01 01:25:35;;;;;;;22.63;9.57;;;1.70;99.90;;;;;;5032028;28;20045;-81
2022/03/01 01:28:02;;;;;;;20.67;10.30;;;1.70;99.90;;;;;;5016587;28;20056;-82
2022/03/01 01:30:30;;;;;;;22.00;9.80;;;1.70;99.90;;;;;;5018200;28;20060;-82
2022/03/01 01:32:56;;;;;;;21.00;9.82;;;1.70;99.90;;;;;;5033288;28;20049;-82
2022/03/01 01:35:23;;;;;;;21.05;8.88;;;2.90;99.90;;;;;;5017091;28;20055;-81
2022/03/01 01:37:51;;;;;;;22.25;9.98;;;1.70;99.90;;;;;;5015429;28;20129;-81
2022/03/01 01:40:19;;;;;;;23.45;10.85;;;2.80;99.90;;;;;;5033523;28;20052;-81
2022/03/01 01:42:45;;;;;;;20.02;9.73;;;2.30;99.90;;;;;;5032034;28;20111;-81
2022/03/01 01:45:12;;;;;;;20.42;9.43;;;1.70;99.90;;;;;;5033087;28;20045;-82
2022/03/01 01:47:38;;;;;;;20.85;10.18;;;2.10;99.90;;;;;;5032688;28;20041;-82
2022/03/01 01:50:05;;;;;;;18.25;8.45;;;2.30;99.90;;;;;;5033587;28;20047;-81
2022/03/01 01:52:31;;;;;;;21.15;9.95;;;1.70;99.90;;;;;;5016088;28;20049;-83
2022/03/01 01:54:57;;;;;;;19.48;9.38;;;2.70;99.90;;;;;;5032577;28;20052;-81
2022/03/01 01:57:24;;;;;;;19.73;10.00;;;1.70;99.90;;;;;;5015778;28;20071;-81
2022/03/01 01:59:52;;;;;;;21.73;10.25;;;1.70;99.90;;;;;;4999549;28;20153;-82
2022/03/01 02:02:20;;;;;;;22.17;10.25;;;2.70;99.90;;;;;;5036951;28;20053;-81
2022/03/01 02:04:47;;;;;;;19.35;9.57;;;1.60;99.90;;;;;;5036004;28;20048;-82
2022/03/01 02:07:14;;;;;;;22.30;10.25;;;1.60;99.90;;;;;;5052401;28;20129;-81
2022/03/01 02:09:40;;;;;;;24.08;11.60;;;1.60;99.90;;;;;;5052242;28;20056;-81
2022/03/01 02:12:06;;;;;;;;;;;1.60;99.90;;;;;;5052169;28;20084;-82
2022/03/01 02:14:34;;;;;;;22.02;11.43;;;1.60;99.90;;;;;;5035592;28;19968;-82
2022/03/01 02:17:03;;;;;;;23.70;11.32;;;1.60;99.90;;;;;;5035309;28;20049;-82
2022/03/01 02:19:30;;;;;;;25.52;11.45;;;1.60;99.90;;;;;;5052436;28;20440;-82
2022/03/01 02:21:56;;;;;;;24.88;11.70;;;1.60;99.90;;;;;;5034542;28;20103;-83
2022/03/01 02:24:27;;;;;;;23.88;10.75;;;1.60;99.90;;;;;;5030563;28;20056;-82
2022/03/01 02:26:58;;;;;;;23.10;10.90;;;1.50;99.90;;;;;;5034499;28;20116;-81
2022/03/01 02:29:26;;;;;;;21.08;10.55;;;2.10;99.90;;;;;;5052235;28;20037;-82
2022/03/01 02:31:53;;;;;;;23.17;11.02;;;2.60;99.90;;;;;;5035632;28;20048;-82
2022/03/01 02:34:20;;;;;;;24.17;11.38;;;1.70;99.90;;;;;;5052913;28;20397;-82
2022/03/01 02:36:45;;;;;;;;;;;1.50;99.90;;;;;;5035175;28;20055;-83
2022/03/01 02:39:12;;;;;;;25.15;11.20;;;2.10;99.90;;;;;;5041804;28;19920;-82
2022/03/01 02:41:39;;;;;;;25.50;10.82;;;1.40;99.90;;;;;;5014620;28;20079;-83
2022/03/01 02:44:05;;;;;;;21.77;10.40;;;1.40;99.90;;;;;;5015263;28;20052;-82
2022/03/01 02:46:32;;;;;;;26.27;11.85;;;1.40;99.90;;;;;;5035787;28;20055;-82
2022/03/01 02:48:58;;;;;;;23.98;11.88;;;2.10;99.90;;;;;;5047116;28;20112;-81
2022/03/01 02:51:23;;;;;;;24.38;12.57;;;1.50;99.90;;;;;;5019642;28;20128;-82
2022/03/01 02:53:49;;;;;;;23.35;11.63;;;1.40;99.90;;;;;;5035869;28;20136;-82
2022/03/01 02:56:15;;;;;;;24.60;10.50;;;2.10;99.90;;;;;;5003343;28;20471;-83
2022/03/01 02:58:40;;;;;;;24.88;11.15;;;2.40;99.90;;;;;;5018473;28;20139;-82
2022/03/01 03:01:07;;;;;;;23.55;10.63;;;1.40;99.90;;;;;;5036482;28;20155;-81
2022/03/01 03:03:33;;;;;;;20.77;10.02;;;1.30;99.90;;;;;;5020280;28;20136;-81
2022/03/01 03:05:59;;;;;;;24.20;10.57;;;1.20;99.90;;;;;;5035171;28;20923;-83
2022/03/01 03:08:25;;;;;;;23.17;10.95;;;1.20;99.90;;;;;;5052625;28;20052;-82
2022/03/01 03:10:50;;;;;;;25.73;11.13;;;1.90;99.90;;;;;;5055954;28;20037;-82
2022/03/01 03:13:16;;;;;;;24.48;11.30;;;2.00;99.90;;;;;;5054931;28;20041;-82
2022/03/01 03:15:42;;;;;;;26.65;12.40;;;1.20;99.90;;;;;;5055318;28;20067;-82
2022/03/01 03:18:08;;;;;;;23.20;11.55;;;1.80;99.90;;;;;;5023310;28;20052;-82
2022/03/01 03:20:34;;;;;;;25.08;11.35;;;1.60;99.90;;;;;;5019325;28;20048;-83
2022/03/01 03:23:00;;;;;;;28.30;12.25;;;2.10;99.90;;;;;;5018702;28;20128;-83
2022/03/01 03:25:25;;;;;;;26.42;12.07;;;1.30;99.90;;;;;;5031386;28;20485;-82
2022/03/01 03:27:51;;;;;;;24.67;12.57;;;1.10;99.90;;;;;;5037125;28;20053;-82
2022/03/01 03:30:17;;;;;;;23.98;12.90;;;1.10;99.90;;;;;;5039010;28;20496;-82
2022/03/01 03:32:43;;;;;;;23.52;11.60;;;1.40;99.90;;;;;;5038651;28;20080;-83
2022/03/01 03:35:09;;;;;;;26.35;12.20;;;1.10;99.90;;;;;;5056098;28;20119;-82
2022/03/01 03:37:35;;;;;;;24.50;11.55;;;1.00;99.90;;;;;;5051877;28;20091;-82
2022/03/01 03:40:02;;;;;;;23.83;11.85;;;1.00;99.90;;;;;;5035449;28;20036;-81
2022/03/01 03:42:27;;;;;;;24.77;11.27;;;1.00;99.90;;;;;;5034965;28;20048;-82
2022/03/01 03:44:53;;;;;;;28.67;12.85;;;1.40;99.90;;;;;;5034940;28;20049;-82
2022/03/01 03:47:19;;;;;;;26.17;12.40;;;0.90;99.90;;;;;;5035710;28;20056;-82
2022/03/01 03:49:44;;;;;;;26.10;11.35;;;1.90;99.90;;;;;;5027322;28;20051;-83
2022/03/01 03:52:10;;;;;;;26.35;12.45;;;0.80;99.90;;;;;;5051442;28;20490;-82
2022/03/01 03:54:36;;;;;;;23.90;11.98;;;1.10;99.90;;;;;;5055647;28;20087;-82
2022/03/01 03:57:07;;;;;;;24.35;10.88;;;0.90;99.90;;;;;;5037555;28;20056;-82
2022/03/01 03:59:34;;;;;;;24.15;11.93;;;1.00;99.90;;;;;;5054677;28;20052;-82
2022/03/01 04:02:01;;;;;;;23.13;10.85;;;0.90;99.90;;;;;;5054847;28;20049;-82
2022/03/01 04:04:27;;;;;;;27.15;10.45;;;1.00;99.90;;;;;;5038715;28;20044;-82
2022/03/01 04:06:52;;;;;;;23.23;10.65;;;2.30;99.90;;;;;;5037189;28;20063;-82
2022/03/01 04:09:18;;;;;;;26.75;11.60;;;1.20;99.90;;;;;;5038913;28;20131;-82
2022/03/01 04:11:44;;;;;;;22.77;11.43;;;1.20;99.90;;;;;;5037510;28;20049;-83
2022/03/01 04:14:10;;;;;;;26.45;12.13;;;1.60;99.90;;;;;;5045605;28;20517;-82
2022/03/01 04:16:35;;;;;;;29.25;12.27;;;2.20;99.90;;;;;;5035049;28;20392;-82
2022/03/01 04:19:02;;;;;;;27.83;11.48;;;1.40;99.90;;;;;;5018386;28;20334;-82
2022/03/01 04:21:28;;;;;;;25.80;12.70;;;2.00;99.90;;;;;;5034190;28;20397;-82
2022/03/01 04:23:54;;;;;;;22.98;10.95;;;1.50;99.90;;;;;;5026598;28;20131;-82
2022/03/01 04:26:19;;;;;;;25.98;12.48;;;1.00;99.90;;;;;;5054655;28;20101;-82
2022/03/01 04:28:45;;;;;;;27.05;12.48;;;1.00;99.90;;;;;;5053605;28;20056;-83
2022/03/01 04:31:11;;;;;;;28.52;12.15;;;1.00;99.90;;;;;;5029691;28;20055;-82
2022/03/01 04:33:37;;;;;;;27.67;13.25;;;1.00;99.90;;;;;;5018619;28;20049;-82
2022/03/01 04:36:03;;;;;;;26.75;12.55;;;1.20;99.90;;;;;;5017276;28;20049;-82
2022/03/01 04:38:33;;;;;;;25.00;12.10;;;1.00;99.90;;;;;;5034640;28;20118;-82
2022/03/01 04:40:59;;;;;;;24.70;11.70;;;1.90;99.90;;;;;;5017745;28;20099;-82
2022/03/01 04:43:24;;;;;;;25.58;11.18;;;1.60;99.90;;;;;;5042831;28;20051;-82
2022/03/01 04:45:50;;;;;;;23.80;12.00;;;1.10;99.90;;;;;;5053955;28;20048;-83
2022/03/01 04:48:16;;;;;;;23.92;11.25;;;2.00;99.90;;;;;;5054780;28;20406;-82
2022/03/01 04:50:42;;;;;;;29.45;13.35;;;1.00;99.90;;;;;;5020631;28;20497;-82
2022/03/01 04:53:07;;;;;;;26.67;12.90;;;1.00;99.90;;;;;;5022966;28;20302;-82
2022/03/01 04:55:34;;;;;;;24.88;12.63;;;1.00;99.90;;;;;;5026446;28;20049;-82
2022/03/01 04:58:00;;;;;;;;;;;1.10;99.90;;;;;;5017418;28;20049;-82
2022/03/01 05:00:26;;;;;;;26.33;10.70;;;1.90;99.90;;;;;;5034313;28;19964;-82
2022/03/01 05:02:52;;;;;;;23.25;11.48;;;0.90;99.90;;;;;;5033700;28;20064;-82
2022/03/01 05:05:17;;;;;;;24.73;11.82;;;0.90;99.90;;;;;;5018051;28;20053;-82
2022/03/01 05:07:46;;;;;;;27.65;12.38;;;1.90;99.90;;;;;;5004719;28;20493;-82
2022/03/01 05:10:17;;;;;;;28.98;13.35;;;1.80;99.90;;;;;;5053624;28;20049;-82
2022/03/01 05:12:51;;;;;;;25.80;12.60;;;1.80;99.90;;;;;;5035629;28;20044;-82
2022/03/01 05:15:17;;;;;;;24.27;11.38;;;1.00;99.90;;;;;;5037024;28;20086;-81
2022/03/01 05:17:43;;;;;;;28.05;11.75;;;1.00;99.90;;;;;;5019165;28;20131;-82
2022/03/01 05:20:11;;;;;;;26.85;12.60;;;1.00;99.90;;;;;;5049138;28;20127;-82
2022/03/01 05:22:37;;;;;;;25.95;12.48;;;1.00;99.90;;;;;;5049374;28;20159;-82
2022/03/01 05:25:09;;;;;;;25.60;12.02;;;1.00;99.90;;;;;;5016733;28;20065;-82
2022/03/01 05:27:36;;;;;;;30.20;12.25;;;1.10;99.90;;;;;;5016317;28;20066;-82
2022/03/01 05:30:03;;;;;;;26.10;11.65;;;1.40;99.90;;;;;;5032907;28;20061;-82
2022/03/01 05:32:29;;;;;;;25.85;11.65;;;1.10;99.90;;;;;;5017192;28;20076;-82
2022/03/01 05:34:54;;;;;;;24.80;11.65;;;1.10;99.90;;;;;;5000161;28;20045;-82
2022/03/01 05:37:20;;;;;;;24.55;12.07;;;1.90;99.90;;;;;;5023173;28;20051;-82
2022/03/01 05:39:46;;;;;;;26.02;12.43;;;1.20;99.90;;;;;;5042026;28;20547;-82
2022/03/01 05:42:12;;;;;;;23.50;11.65;;;1.10;99.90;;;;;;5052161;28;20053;-82
2022/03/01 05:44:37;;;;;;;25.05;12.68;;;1.50;99.90;;;;;;5053169;28;20048;-83
2022/03/01 05:47:03;;;;;;;28.45;12.93;;;1.10;99.90;;;;;;5052549;28;20508;-82
2022/03/01 05:49:29;;;;;;;26.48;12.07;;;1.10;99.90;;;;;;5036908;28;20056;-82
2022/03/01 05:51:55;;;;;;;28.80;12.50;;;2.20;99.90;;;;;;5052022;28;20200;-84
2022/03/01 05:54:20;;;;;;;29.33;12.40;;;1.10;99.90;;;;;;5017275;28;20044;-85
2022/03/01 05:56:46;;;;;;;23.65;12.10;;;1.00;99.90;;;;;;4999759;28;20045;-81
2022/03/01 05:59:12;;;;;;;28.65;12.23;;;1.00;99.90;;;;;;4999788;28;20486;-81
2022/03/01 06:01:37;;;;;;;26.83;12.75;;;1.00;99.90;;;;;;5016857;28;20040;-81
2022/03/01 06:04:03;;;;;;;28.50;13.10;;;1.40;99.90;;;;;;5016343;28;20052;-82
2022/03/01 06:06:29;;;;;;;26.85;12.15;;;1.00;99.90;;;;;;5001233;28;20509;-82
2022/03/01 06:08:54;;;;;;;25.85;11.98;;;1.00;99.90;;;;;;5016343;28;20135;-82
2022/03/01 06:11:20;;;;;;;29.58;13.40;;;1.00;99.90;;;;;;5016114;28;20045;-81
2022/03/01 06:13:46;;;;;;;32.50;13.68;;;1.00;99.90;;;;;;5032007;28;20055;-82
2022/03/01 06:16:12;;;;;;;29.25;13.88;;;1.00;99.90;;;;;;5009362;28;20041;-82
2022/03/01 06:18:37;;;;;;;;;;;1.00;99.90;;;;;;5037081;28;20066;-82
2022/03/01 06:21:04;;;;;;;24.38;11.27;;;1.00;99.90;;;;;;5035253;28;19924;-81
2022/03/01 06:23:31;;;;;;;;;;;1.00;99.90;;;;;;5036302;28;20079;-82
2022/03/01 06:25:56;;;;;;;31.65;13.90;;;1.00;99.90;;;;;;5050154;28;19924;-81
2022/03/01 06:28:25;;;;;;;28.77;13.55;;;1.00;99.90;;;;;;5050347;28;20125;-82
2022/03/01 06:30:50;;;;;;;27.25;11.98;;;1.50;99.90;;;;;;5031219;28;20053;-82
2022/03/01 06:33:18;;;;;;;23.48;11.60;;;1.90;99.90;;;;;;5015966;28;20060;-82
2022/03/01 06:35:47;;;;;;;29.10;13.20;;;0.90;99.90;;;;;;5042063;28;20044;-82
2022/03/01 06:38:13;;;;;;;31.70;14.48;;;1.80;99.90;;;;;;5034873;28;20102;-82
2022/03/01 06:40:39;;;;;;;;;;;0.90;99.90;;;;;;5053289;28;20044;-83
2022/03/01 06:43:04;;;;;;;29.95;13.60;;;1.90;99.90;;;;;;5018095;28;20393;-82
2022/03/01 06:45:32;;;;;;;29.73;13.88;;;0.90;99.90;;;;;;5036030;28;20044;-82
2022/03/01 06:47:58;;;;;;;28.10;13.02;;;0.90;99.90;;;;;;5019875;28;20086;-82
2022/03/01 06:50:25;;;;;;;31.35;12.98;;;1.10;99.90;;;;;;5035702;28;20052;-81
2022/03/01 06:52:51;;;;;;;30.80;14.40;;;0.90;99.90;;;;;;5015169;28;20060;-82
2022/03/01 06:55:17;;;;;;;29.13;13.13;;;1.30;99.90;;;;;;5051573;28;20048;-82
2022/03/01 06:57:43;;;;;;;;;;;1.70;99.90;;;;;;5050498;28;20114;-81
2022/03/01 07:00:13;;;;;;;31.92;14.02;;;0.90;99.90;;;;;;5051819;28;19924;-82
2022/03/01 07:02:39;;;;;;;27.23;13.52;;;1.00;99.90;;;;;;5035709;28;20052;-81
2022/03/01 07:05:15;;;;;;;;;;;1.00;99.90;;;;;;5052591;28;20375;-82
2022/03/01 07:07:41;;;;;;;31.40;13.98;;;1.00;99.90;;;;;;5040360;28;20008;-81
2022/03/01 07:10:11;;;;;;;32.35;13.93;;;1.20;99.90;;;;;;5032033;28;20186;-82
2022/03/01 07:12:37;;;;;;;34.08;14.77;;;1.10;99.90;;;;;;5031536;28;20189;-81
2022/03/01 07:15:04;;;;;;;30.30;13.82;;;1.20;99.90;;;;;;5031642;28;20076;-82
2022/03/01 07:17:30;;;;;;;30.80;14.20;;;1.30;99.90;;;;;;5015555;28;20080;-81
2022/03/01 07:19:56;;;;;;;31.73;14.60;;;1.70;99.90;;;;;;5016199;28;20491;-81
2022/03/01 07:22:22;;;;;;;29.25;14.05;;;2.20;99.90;;;;;;5038854;28;20105;-82
2022/03/01 07:24:48;;;;;;;30.58;13.55;;;1.40;99.90;;;;;;5052353;28;20045;-81
2022/03/01 07:27:14;;;;;;;33.15;13.82;;;1.50;99.90;;;;;;5033784;28;20068;-82
2022/03/01 07:29:40;;;;;;;27.25;13.23;;;1.50;99.90;;;;;;5052002;28;20055;-82
2022/03/01 07:32:06;;;;;;;25.73;13.65;;;2.60;99.90;;;;;;5034702;28;20044;-82
2022/03/01 07:34:32;;;;;;;30.05;14.13;;;1.70;99.90;;;;;;5031820;28;20044;-81
2022/03/01 07:36:59;;;;;;;26.20;13.30;;;1.80;99.90;;;;;;5025412;28;20036;-81
2022/03/01 07:39:25;;;;;;;28.27;13.55;;;1.80;99.90;;;;;;5035389;28;20132;-82
2022/03/01 07:41:51;;;;;;;28.08;13.05;;;2.40;99.90;;;;;;5035045;28;20128;-82
2022/03/01 07:44:18;;;;;;;26.23;13.27;;;2.80;99.90;;;;;;5054708;28;20447;-82
2022/03/01 07:46:44;;;;;;;30.42;13.95;;;2.80;99.90;;;;;;5055698;28;20074;-81
2022/03/01 07:49:10;;;;;;;26.23;13.20;;;2.10;99.90;;;;;;5044551;28;20125;-82
2022/03/01 07:51:36;;;;;;;28.63;14.20;;;2.20;99.90;;;;;;5052316;28;20056;-82
2022/03/01 07:54:02;;;;;;;26.00;13.00;;;2.60;99.90;;;;;;5031753;28;20144;-82
2022/03/01 07:56:28;;;;;;;26.58;13.23;;;2.30;99.90;;;;;;5036248;28;20052;-81
2022/03/01 07:58:54;;;;;;;28.25;13.57;;;2.80;99.90;;;;;;5018889;28;20139;-81
2022/03/01 08:01:20;;;;;;;27.70;12.98;;;3.50;99.90;;;;;;5034674;28;20098;-82
2022/03/01 08:03:47;;;;;;;30.02;13.40;;;2.90;99.90;;;;;;5039132;28;20124;-82
2022/03/01 08:06:13;;;;;;;26.08;13.35;;;3.50;99.90;;;;;;5018504;28;20466;-82
2022/03/01 08:08:40;;;;;;;27.25;13.55;;;3.00;99.90;;;;;;5036910;28;20041;-82
2022/03/01 08:11:06;;;;;;;27.75;12.70;;;2.70;99.90;;;;;;5038048;28;20055;-83
2022/03/01 08:13:33;;;;;;;26.85;12.43;;;2.80;99.90;;;;;;5031720;28;20037;-82
2022/03/01 08:15:58;;;;;;;26.42;12.88;;;3.20;99.90;;;;;;5020180;28;20124;-83
2022/03/01 08:18:24;;;;;;;30.23;13.75;;;2.90;99.90;;;;;;5033674;28;20127;-82
2022/03/01 08:20:50;;;;;;;30.15;13.45;;;2.90;99.90;;;;;;5020352;28;20118;-82
2022/03/01 08:23:16;;;;;;;30.05;13.63;;;2.90;99.90;;;;;;5020713;28;20048;-82
2022/03/01 08:25:42;;;;;;;26.75;13.50;;;3.50;99.90;;;;;;5041389;28;20057;-82
2022/03/01 08:28:08;;;;;;;;;;;3.60;99.90;;;;;;5038641;28;20099;-83
2022/03/01 08:30:35;;;;;;;27.35;12.88;;;3.00;99.90;;;;;;5044305;28;19964;-82
2022/03/01 08:33:02;;;;;;;28.83;13.43;;;3.10;99.90;;;;;;5033078;28;20049;-82
2022/03/01 08:35:30;;;;;;;26.85;13.40;;;3.00;99.90;;;;;;5033855;28;20074;-82
2022/03/01 08:38:00;;;;;;;24.88;12.77;;;3.10;99.90;;;;;;5045668;28;20049;-82
2022/03/01 08:40:25;;;;;;;28.60;13.48;;;3.30;99.90;;;;;;5047779;28;20585;-81
2022/03/01 08:42:51;;;;;;;31.80;14.52;;;3.90;99.90;;;;;;5017577;28;20131;-81
2022/03/01 08:45:17;;;;;;;26.33;13.20;;;4.00;99.90;;;;;;5021716;28;20059;-84
2022/03/01 08:47:43;;;;;;;28.75;13.32;;;3.10;99.90;;;;;;5039294;28;20118;-84
2022/03/01 08:50:10;;;;;;;25.67;13.38;;;3.20;99.90;;;;;;5035674;28;20179;-85
2022/03/01 08:52:35;;;;;;;28.63;13.93;;;4.00;99.90;;;;;;5006765;28;20036;-84
2022/03/01 08:55:01;;;;;;;29.90;13.52;;;3.20;99.90;;;;;;5035759;28;20393;-84
2022/03/01 08:57:27;;;;;;;26.63;12.73;;;3.30;99.90;;;;;;5043655;28;20075;-83
2022/03/01 08:59:53;;;;;;;25.73;13.20;;;3.30;99.90;;;;;;5044944;28;20036;-83
2022/03/01 09:02:20;;;;;;;27.08;12.18;;;4.10;99.90;;;;;;5025854;28;20532;-84
2022/03/01 09:04:45;;;;;;;28.85;13.75;;;3.40;99.90;;;;;;5025238;28;20049;-85
2022/03/01 09:07:14;;;;;;;29.60;13.57;;;3.50;99.90;;;;;;5023804;28;20067;-85
2022/03/01 09:09:40;;;;;;;26.08;12.60;;;3.60;99.90;;;;;;5057667;28;20175;-83
2022/03/01 09:12:06;;;;;;;30.00;13.10;;;3.60;99.90;;;;;;5042413;28;20159;-83
2022/03/01 09:14:32;;;;;;;27.30;12.80;;;3.70;99.90;;;;;;5044615;28;20663;-84
2022/03/01 09:16:57;;;;;;;28.67;13.80;;;3.80;99.90;;;;;;5053748;28;20111;-84
2022/03/01 09:19:23;;;;;;;28.50;13.35;;;4.60;99.90;;;;;;5046404;28;20075;-83
2022/03/01 09:21:49;;;;;;;28.92;13.65;;;4.10;99.90;;;;;;5025130;28;20041;-84
2022/03/01 09:24:15;;;;;;;28.42;13.82;;;4.30;99.90;;;;;;5040302;28;20052;-86
2022/03/01 09:26:40;;;;;;;24.77;13.18;;;4.50;99.90;;;;;;5023033;28;20056;-83
2022/03/01 09:29:06;;;;;;;26.67;13.35;;;4.40;99.90;;;;;;5053975;28;20060;-83
2022/03/01 09:31:32;;;;;;;26.98;13.48;;;4.50;99.90;;;;;;5039546;28;20533;-86
2022/03/01 09:33:58;;;;;;;28.38;13.43;;;4.50;99.90;;;;;;5036329;28;20044;-82
2022/03/01 09:36:26;;;;;;;27.13;13.25;;;5.60;99.90;;;;;;5019205;28;20754;-82
2022/03/01 09:38:52;;;;;;;25.67;13.70;;;4.60;99.90;;;;;;5019522;28;20057;-81
2022/03/01 09:41:18;;;;;;;26.50;13.50;;;4.70;99.90;;;;;;5007057;28;20091;-82
2022/03/01 09:43:44;;;;;;;25.25;12.88;;;4.80;99.90;;;;;;5034724;28;20053;-82
2022/03/01 09:46:10;;;;;;;26.23;13.23;;;5.70;99.90;;;;;;5024769;28;20053;-82
2022/03/01 09:48:36;;;;;;;;;;;5.10;99.90;;;;;;5029333;28;20609;-81
2022/03/01 09:51:04;;;;;;;26.23;12.98;;;5.20;99.90;;;;;;5030680;28;19994;-82
2022/03/01 09:53:31;;;;;;;23.17;12.13;;;5.30;99.90;;;;;;5042499;28;20045;-82
2022/03/01 09:55:59;;;;;;;24.55;12.95;;;5.40;99.90;;;;;;5046471;28;20041;-82
2022/03/01 09:58:26;;;;;;;26.02;13.20;;;5.60;99.90;;;;;;5045932;28;20040;-82
2022/03/01 10:00:51;;;;;;;23.75;11.73;;;5.70;99.90;;;;;;5032204;28;20037;-82
2022/03/01 10:03:20;;;;;;;27.20;12.57;;;5.80;99.90;;;;;;5032149;28;20119;-84
2022/03/01 10:05:46;;;;;;;27.42;12.77;;;6.20;99.90;;;;;;5031409;28;20098;-82
2022/03/01 10:08:20;;;;;;;21.67;12.50;;;6.00;99.90;;;;;;5031917;28;20057;-82
2022/03/01 10:10:53;;;;;;;24.20;12.45;;;6.10;99.90;;;;;;5047891;28;20045;-82
2022/03/01 10:13:39;;;;;;;22.80;12.55;;;6.40;99.90;;;;;;5043368;28;20080;-84
2022/03/01 10:16:16;;;;;;;19.58;10.82;;;6.30;99.90;;;;;;5030435;28;20044;-82
2022/03/01 10:18:48;;;;;;;21.08;11.75;;;6.40;99.90;;;;;;5045807;28;20147;-82
2022/03/01 10:21:14;;;;;;;21.25;11.38;;;6.40;99.90;;;;;;5031329;28;20084;-82
2022/03/01 10:23:47;;;;;;;21.63;11.77;;;6.40;99.90;;;;;;5050779;28;20126;-82
2022/03/01 10:26:22;;;;;;;21.58;11.77;;;6.40;99.90;;;;;;5056369;28;20060;-82
2022/03/01 10:28:49;;;;;;;21.95;11.75;;;6.30;99.90;;;;;;5038659;28;20053;-82
2022/03/01 10:31:18;;;;;;;19.75;9.98;;;6.30;99.90;;;;;;5035069;28;20460;-83
2022/03/01 10:33:54;;;;;;;20.23;9.95;;;6.50;99.90;;;;;;5044747;28;20042;-82
2022/03/01 10:36:27;;;;;;;18.67;10.40;;;6.70;99.90;;;;;;5023519;28;20049;-84
2022/03/01 10:38:58;;;;;;;19.85;10.85;;;6.20;99.90;;;;;;5029856;28;20067;-82
2022/03/01 10:41:28;;;;;;;16.77;9.50;;;6.30;99.90;;;;;;5021693;28;20056;-84
2022/03/01 10:43:57;;;;;;;20.55;10.90;;;6.30;99.90;;;;;;5029358;28;20041;-82
2022/03/01 10:46:24;;;;;;;18.90;9.02;;;6.70;99.90;;;;;;5011059;28;20443;-84
2022/03/01 10:49:08;;;;;;;18.67;10.35;;;6.40;99.90;;;;;;5029638;28;20198;-81
2022/03/01 10:51:46;;;;;;;18.88;9.30;;;7.10;99.90;;;;;;5012539;28;20056;-82
2022/03/01 10:54:30;;;;;;;19.20;9.75;;;7.40;99.90;;;;;;5003923;28;20057;-82
2022/03/01 10:56:57;;;;;;;20.55;10.52;;;6.60;99.90;;;;;;5017849;28;20170;-82
2022/03/01 10:59:28;;;;;;;21.00;10.10;;;6.70;99.90;;;;;;5029968;28;20049;-83
2022/03/01 11:01:56;;;;;;;19.83;10.02;;;6.80;99.90;;;;;;5030701;28;20046;-82
2022/03/01 11:04:24;;;;;;;20.95;11.02;;;6.90;99.90;;;;;;5018479;28;20059;-81
2022/03/01 11:06:50;;;;;;;20.33;11.10;;;7.10;99.90;;;;;;5016729;28;20049;-82
2022/03/01 11:09:17;;;;;;;20.40;9.82;;;7.20;99.90;;;;;;5031057;28;20045;-82
2022/03/01 11:11:44;;;;;;;17.85;9.77;;;7.40;99.90;;;;;;5013101;28;20598;-81
2022/03/01 11:14:18;;;;;;;21.80;11.02;;;7.60;99.90;;;;;;5031203;28;20522;-82
2022/03/01 11:17:21;;;;;;;20.83;10.32;;;7.70;99.90;;;;;;5025497;28;20044;-82
2022/03/01 11:19:53;;;;;;;19.45;9.60;;;7.90;99.90;;;;;;5031273;28;20037;-81
2022/03/01 11:22:30;;;;;;;17.58;9.88;;;8.00;99.90;;;;;;5036402;28;20044;-81
2022/03/01 11:24:56;;;;;;;;;;;8.10;99.90;;;;;;5047607;28;20041;-82
2022/03/01 11:27:24;;;;;;;20.45;10.15;;;8.20;99.90;;;;;;5066231;28;20700;-81
2022/03/01 11:29:51;;;;;;;21.95;10.55;;;8.30;99.90;;;;;;5030585;28;20073;-82
2022/03/01 11:32:21;;;;;;;19.40;10.35;;;8.40;99.90;;;;;;5031145;28;20731;-82
2022/03/01 11:34:58;;;;;;;18.55;11.00;;;8.50;99.90;;;;;;5039484;28;20055;-81
2022/03/01 11:37:30;;;;;;;27.10;10.43;;;8.70;99.90;;;;;;5043917;28;20119;-82
2022/03/01 11:39:59;;;;;;;19.90;11.10;;;8.90;99.90;;;;;;5024480;28;20045;-81
2022/03/01 11:42:30;;;;;;;19.08;10.68;;;9.20;99.90;;;;;;5030452;28;20044;-82
2022/03/01 11:44:56;;;;;;;18.83;10.23;;;9.30;99.90;;;;;;5033123;28;20063;-81
2022/03/01 11:47:29;;;;;;;19.15;10.48;;;9.30;99.90;;;;;;5030558;28;20045;-81
2022/03/01 11:49:55;;;;;;;19.50;10.95;;;9.20;99.90;;;;;;5046053;28;20051;-81
2022/03/01 11:52:24;;;;;;;17.05;10.10;;;9.10;99.90;;;;;;5006833;28;20045;-81
2022/03/01 11:54:56;;;;;;;18.25;10.10;;;9.00;99.90;;;;;;5037397;28;20048;-81
2022/03/01 11:57:29;;;;;;;21.33;10.57;;;8.90;99.90;;;;;;5043927;28;20038;-82
2022/03/01 11:59:58;;;;;;;17.67;10.52;;;8.80;99.90;;;;;;5034516;28;20071;-81
2022/03/01 12:02:27;;;;;;;20.63;10.00;;;8.80;99.90;;;;;;5040388;28;20041;-80
2022/03/01 12:04:57;;;;;;;20.05;10.10;;;8.80;99.90;;;;;;5024167;28;20063;-81
2022/03/01 12:07:25;;;;;;;22.55;11.07;;;8.70;99.90;;;;;;5046126;28;20041;-81
2022/03/01 12:10:00;;;;;;;21.88;11.10;;;8.70;99.90;;;;;;5032405;28;20057;-81
2022/03/01 12:12:37;;;;;;;17.42;9.90;;;8.70;99.90;;;;;;5031265;28;20053;-81
2022/03/01 12:15:04;;;;;;;20.75;10.93;;;8.70;99.90;;;;;;5029030;28;20071;-81
2022/03/01 12:17:43;;;;;;;18.77;10.45;;;8.80;99.90;;;;;;5033656;28;20052;-82
2022/03/01 12:20:12;;;;;;;22.05;11.45;;;8.80;99.90;;;;;;5051667;28;20124;-82
2022/03/01 12:22:48;;;;;;;20.05;10.55;;;8.90;99.90;;;;;;5049440;28;20367;-82
2022/03/01 12:25:14;;;;;;;21.05;11.15;;;8.90;99.90;;;;;;5049670;28;20045;-82
2022/03/01 12:27:43;;;;;;;17.50;9.65;;;9.00;99.90;;;;;;5033327;28;20052;-82
2022/03/01 12:30:10;;;;;;;18.35;10.60;;;9.00;99.90;;;;;;5033475;28;20493;-82
2022/03/01 12:32:36;;;;;;;21.30;10.73;;;8.90;99.90;;;;;;5004097;28;20048;-82
2022/03/01 12:35:03;;;;;;;20.08;10.40;;;8.90;99.90;;;;;;5051308;28;20052;-83
2022/03/01 12:37:30;;;;;;;20.63;11.25;;;8.90;99.90;;;;;;5033426;28;20051;-84
2022/03/01 12:39:56;;;;;;;19.63;10.90;;;8.90;99.90;;;;;;5051178;28;20051;-82
2022/03/01 12:42:27;;;;;;;;;;;8.90;99.90;;;;;;5029320;28;20049;-82